Millersville, Missouri
Current Conditions -  °F | °C
As of 8:53 PM on Saturday 22 Nov 2014 (Local Time) from KCGI Reporting Station
Overcast Overcast  
Wind Chill: 57°   Ceiling: 5500
Heat Index: 57°   Visibility: 10mi
Dew Point: 41°   Wind: 12mph
Humidity: 55%   Direction: 180°S
Pressure: 30"   Gusts: NA
Location:  37.43°N, 89.8°W
Report Text: KCGI 230253Z AUTO 18010KT 10SM FEW039 OVC055 14/05 A3000 RMK AO2 SLP158 60000 T01390050 58009 TSNO
Loading
Personal Weather Stations






























Interactive Weather Map New forecast layout! Learn more

10-Day Weather Forecast

Advertisements
Track Severe Weather on mobile